Time;durP1;ratioP1;P1;durP2;ratioP2;P2;SDS_P1;SDS_P2;PMS_P1;PMS_P2;Temp;Humidity;BMP_temperature;BMP_pressure;BME280_temperature;BME280_humidity;BME280_pressure;Samples;Min_cycle;Max_cycle;Signal;HPM_P1;HPM_P2
2023/11/16 00:01:06;;;;;;;37.78;35.88;;;;;;;;;;5064685;28;20036;-67
2023/11/16 00:03:32;;;;;;;38.20;36.10;;;;;;;;;;5062813;28;20453;-67
2023/11/16 00:05:57;;;;;;;36.63;34.72;;;;;;;;;;5065375;28;20036;-66
2023/11/16 00:08:22;;;;;;;36.97;35.05;;;;;;;;;;5063864;28;20461;-68
2023/11/16 00:10:47;;;;;;;37.17;35.17;;;;;;;;;;5066303;28;20032;-68
2023/11/16 00:13:14;;;;;;;35.55;33.72;;;;;;;;;;5064679;28;20032;-68
2023/11/16 00:15:39;;;;;;;37.05;34.95;;;;;;;;;;5064748;28;20578;-68
2023/11/16 00:18:04;;;;;;;36.28;34.38;;;;;;;;;;5064513;28;20025;-67
2023/11/16 00:20:32;;;;;;;35.85;34.03;;;;;;;;;;5062945;28;20562;-67
2023/11/16 00:22:57;;;;;;;38.50;36.50;;;;;;;;;;5064776;28;20040;-68
2023/11/16 00:25:23;;;;;;;35.35;33.53;;;;;;;;;;5064993;28;20051;-67
2023/11/16 00:27:48;;;;;;;37.55;35.63;;;;;;;;;;5065298;28;20040;-68
2023/11/16 00:30:14;;;;;;;35.42;33.63;;;;;;;;;;5065262;28;20086;-67
2023/11/16 00:32:39;;;;;;;35.95;34.15;;;;;;;;;;5064042;28;20025;-68
2023/11/16 00:35:06;;;;;;;36.03;34.13;;;;;;;;;;5062896;28;20028;-67
2023/11/16 00:37:32;;;;;;;36.35;34.45;;;;;;;;;;5063724;28;20237;-67
2023/11/16 00:39:59;;;;;;;34.70;32.90;;;;;;;;;;5065909;28;20040;-68
2023/11/16 00:42:24;;;;;;;36.30;34.40;;;;;;;;;;5067023;28;20086;-68
2023/11/16 00:44:50;;;;;;;35.65;33.83;;;;;;;;;;5061561;28;20264;-67
2023/11/16 00:47:18;;;;;;;34.92;33.13;;;;;;;;;;5063676;28;20063;-67
2023/11/16 00:49:45;;;;;;;33.60;31.90;;;;;;;;;;5064647;28;20036;-67
2023/11/16 00:52:11;;;;;;;33.42;31.73;;;;;;;;;;5067350;28;20031;-67
2023/11/16 00:54:36;;;;;;;35.17;33.28;;;;;;;;;;5061116;28;20040;-68
2023/11/16 00:57:03;;;;;;;34.72;32.92;;;;;;;;;;5065118;28;20039;-68
2023/11/16 00:59:28;;;;;;;34.67;32.85;;;;;;;;;;5064194;28;20115;-67
2023/11/16 01:01:57;;;;;;;34.83;33.03;;;;;;;;;;5064972;28;20119;-68
2023/11/16 01:04:22;;;;;;;32.72;31.02;;;;;;;;;;5064094;28;20046;-68
2023/11/16 01:06:48;;;;;;;34.00;32.20;;;;;;;;;;5065406;28;20135;-68
2023/11/16 01:09:13;;;;;;;35.70;33.88;;;;;;;;;;5064390;28;20123;-67
2023/11/16 01:11:39;;;;;;;33.33;31.63;;;;;;;;;;5062743;28;20122;-68
2023/11/16 01:14:05;;;;;;;32.45;30.75;;;;;;;;;;5063513;28;20029;-68
2023/11/16 01:16:40;;;;;;;33.72;32.03;;;;;;;;;;5062354;28;20044;-68
2023/11/16 01:19:08;;;;;;;32.72;31.02;;;;;;;;;;5065302;28;20029;-67
2023/11/16 01:21:41;;;;;;;33.50;31.70;;;;;;;;;;5063313;28;20037;-63
2023/11/16 01:24:09;;;;;;;32.60;30.90;;;;;;;;;;5068935;28;20029;-63
2023/11/16 01:26:36;;;;;;;35.53;33.53;;;;;;;;;;5067047;28;20032;-63
2023/11/16 01:29:06;;;;;;;33.90;32.10;;;;;;;;;;5063527;28;20159;-66
2023/11/16 01:31:31;;;;;;;32.55;30.85;;;;;;;;;;5065051;28;20050;-67
2023/11/16 01:33:57;;;;;;;36.63;34.72;;;;;;;;;;5063250;28;20024;-63
2023/11/16 01:36:24;;;;;;;34.10;32.30;;;;;;;;;;5063929;28;20367;-67
2023/11/16 01:38:50;;;;;;;33.25;31.55;;;;;;;;;;5061915;28;20044;-63
2023/11/16 01:41:16;;;;;;;35.42;33.63;;;;;;;;;;5060622;28;20361;-63
2023/11/16 01:43:42;;;;;;;34.17;32.42;;;;;;;;;;5083758;28;20115;-63
2023/11/16 01:46:09;;;;;;;34.60;32.80;;;;;;;;;;5063990;28;20376;-63
2023/11/16 01:48:36;;;;;;;33.35;31.63;;;;;;;;;;5063299;28;20047;-63
2023/11/16 01:51:05;;;;;;;33.42;31.65;;;;;;;;;;5062727;28;20066;-63
2023/11/16 01:53:50;;;;;;;32.92;31.13;;;;;;;;;;5063512;28;20446;-63
2023/11/16 01:56:16;;;;;;;32.10;30.42;;;;;;;;;;5062113;28;20048;-68
2023/11/16 01:58:44;;;;;;;32.25;30.52;;;;;;;;;;5059359;28;20100;-63
2023/11/16 02:01:09;;;;;;;35.45;33.55;;;;;;;;;;5066160;28;20040;-63
2023/11/16 02:03:35;;;;;;;35.20;33.13;;;;;;;;;;5064853;28;20032;-63
2023/11/16 02:06:03;;;;;;;34.40;32.60;;;;;;;;;;5063213;28;20033;-63
2023/11/16 02:08:28;;;;;;;34.95;33.15;;;;;;;;;;5063171;28;20053;-63
2023/11/16 02:10:54;;;;;;;37.03;35.03;;;;;;;;;;5061991;28;20033;-63
2023/11/16 02:13:21;;;;;;;40.05;36.38;;;;;;;;;;5063418;28;20110;-68
2023/11/16 02:15:47;;;;;;;36.92;35.03;;;;;;;;;;5059810;28;20551;-67
2023/11/16 02:18:13;;;;;;;35.53;33.65;;;;;;;;;;5070194;28;20373;-63
2023/11/16 02:20:40;;;;;;;36.95;35.05;;;;;;;;;;5061160;28;20124;-63
2023/11/16 02:23:06;;;;;;;38.58;36.58;;;;;;;;;;5061494;28;20068;-67
2023/11/16 02:25:41;;;;;;;36.30;34.42;;;;;;;;;;5062774;28;20056;-63
2023/11/16 02:28:07;;;;;;;34.85;33.05;;;;;;;;;;5064737;28;20036;-63
2023/11/16 02:30:32;;;;;;;41.25;38.10;;;;;;;;;;5061264;28;20191;-67
2023/11/16 02:32:58;;;;;;;37.75;35.75;;;;;;;;;;5063179;28;20037;-63
2023/11/16 02:35:23;;;;;;;39.42;37.33;;;;;;;;;;5062451;28;20036;-68
2023/11/16 02:37:48;;;;;;;38.30;36.33;;;;;;;;;;5061254;28;20047;-66
2023/11/16 02:40:17;;;;;;;40.10;38.00;;;;;;;;;;5062141;28;20064;-66
2023/11/16 02:42:43;;;;;;;41.15;38.67;;;;;;;;;;5063134;28;20370;-67
2023/11/16 02:45:10;;;;;;;40.40;38.30;;;;;;;;;;5061970;28;20477;-63
2023/11/16 02:47:36;;;;;;;40.28;38.08;;;;;;;;;;5060674;28;20056;-68
2023/11/16 02:50:03;;;;;;;40.22;38.10;;;;;;;;;;5062478;28;20037;-67
2023/11/16 02:52:28;;;;;;;38.72;36.67;;;;;;;;;;5056892;28;20025;-67
2023/11/16 02:54:54;;;;;;;39.28;37.25;;;;;;;;;;5063546;28;20303;-67
2023/11/16 02:57:20;;;;;;;42.30;40.17;;;;;;;;;;5063763;28;20032;-63
2023/11/16 02:59:47;;;;;;;38.60;36.60;;;;;;;;;;5059022;28;20046;-66
2023/11/16 03:02:14;;;;;;;38.70;36.70;;;;;;;;;;5064892;28;20033;-63
2023/11/16 03:04:40;;;;;;;38.05;36.10;;;;;;;;;;5062602;28;20033;-67
2023/11/16 03:07:05;;;;;;;39.88;37.78;;;;;;;;;;5063372;28;20469;-63
2023/11/16 03:09:32;;;;;;;38.47;36.47;;;;;;;;;;5061574;28;20345;-68
2023/11/16 03:11:57;;;;;;;37.70;35.70;;;;;;;;;;5062906;28;20025;-63
2023/11/16 03:14:23;;;;;;;41.85;39.75;;;;;;;;;;5063016;28;20480;-67
2023/11/16 03:16:55;;;;;;;39.67;37.67;;;;;;;;;;5065410;28;20040;-67
2023/11/16 03:19:21;;;;;;;40.03;38.00;;;;;;;;;;5068290;28;20032;-63
2023/11/16 03:21:47;;;;;;;40.17;37.97;;;;;;;;;;5065333;28;20046;-63
2023/11/16 03:24:12;;;;;;;39.20;37.20;;;;;;;;;;5065311;28;20049;-66
2023/11/16 03:26:38;;;;;;;37.75;35.85;;;;;;;;;;5064557;28;20032;-66
2023/11/16 03:29:04;;;;;;;38.97;36.97;;;;;;;;;;5064584;28;20305;-63
2023/11/16 03:31:30;;;;;;;37.25;35.28;;;;;;;;;;5062069;28;20507;-63
2023/11/16 03:33:56;;;;;;;36.75;34.85;;;;;;;;;;5068839;28;20052;-63
2023/11/16 03:36:24;;;;;;;36.72;34.83;;;;;;;;;;5066057;28;20481;-63
2023/11/16 03:38:49;;;;;;;37.85;35.85;;;;;;;;;;5055051;28;20028;-67
2023/11/16 03:41:15;;;;;;;37.22;35.15;;;;;;;;;;5065234;28;20405;-67
2023/11/16 03:43:40;;;;;;;39.00;37.00;;;;;;;;;;5065870;28;20052;-66
2023/11/16 03:46:09;;;;;;;40.33;37.75;;;;;;;;;;5064772;28;20032;-67
2023/11/16 03:48:34;;;;;;;38.50;36.50;;;;;;;;;;5065549;28;20046;-63
2023/11/16 03:51:02;;;;;;;39.83;37.83;;;;;;;;;;5066493;28;20044;-67
2023/11/16 03:53:27;;;;;;;39.22;36.75;;;;;;;;;;5064080;28;20047;-62
2023/11/16 03:55:52;;;;;;;37.80;35.88;;;;;;;;;;5065654;28;20067;-66
2023/11/16 03:58:19;;;;;;;41.08;38.88;;;;;;;;;;5067438;28;20508;-64
2023/11/16 04:00:45;;;;;;;37.97;36.08;;;;;;;;;;5065052;28;20033;-65
2023/11/16 04:03:11;;;;;;;38.42;36.42;;;;;;;;;;5064406;28;20091;-67
2023/11/16 04:05:37;;;;;;;38.92;36.88;;;;;;;;;;5068596;28;20039;-63
2023/11/16 04:08:05;;;;;;;38.83;36.83;;;;;;;;;;5067780;28;20044;-67
2023/11/16 04:10:30;;;;;;;40.65;38.45;;;;;;;;;;5064060;28;20423;-67
2023/11/16 04:12:55;;;;;;;40.33;38.13;;;;;;;;;;5064857;28;20024;-67
2023/11/16 04:15:22;;;;;;;40.30;38.22;;;;;;;;;;5063202;28;20526;-67
2023/11/16 04:17:47;;;;;;;38.92;36.92;;;;;;;;;;5063686;28;20036;-67
2023/11/16 04:20:13;;;;;;;40.05;37.75;;;;;;;;;;5064547;28;20082;-63
2023/11/16 04:22:40;;;;;;;40.53;38.42;;;;;;;;;;5062010;28;20303;-62
2023/11/16 04:25:27;;;;;;;37.40;35.25;;;;;;;;;;5062286;28;20048;-66
2023/11/16 04:27:59;;;;;;;40.00;38.00;;;;;;;;;;5066214;28;20501;-63
2023/11/16 04:30:30;;;;;;;39.20;37.20;;;;;;;;;;5064606;28;20090;-66
2023/11/16 04:32:56;;;;;;;39.63;37.58;;;;;;;;;;5068087;28;20127;-67
2023/11/16 04:35:21;;;;;;;36.97;35.08;;;;;;;;;;5067422;28;20174;-63
2023/11/16 04:37:48;;;;;;;41.47;39.38;;;;;;;;;;5068362;28;20037;-63
2023/11/16 04:40:13;;;;;;;40.00;37.95;;;;;;;;;;5063564;28;20024;-66
2023/11/16 04:42:43;;;;;;;40.90;38.80;;;;;;;;;;5066612;28;20028;-63
2023/11/16 04:45:12;;;;;;;38.03;35.95;;;;;;;;;;5062427;28;20059;-64
2023/11/16 04:47:43;;;;;;;38.85;36.85;;;;;;;;;;5069287;28;20031;-63
2023/11/16 04:50:10;;;;;;;38.92;36.75;;;;;;;;;;5065810;28;20575;-66
2023/11/16 04:52:36;;;;;;;38.15;36.15;;;;;;;;;;5064756;28;20028;-63
2023/11/16 04:55:03;;;;;;;39.25;37.20;;;;;;;;;;5067122;28;20464;-62
2023/11/16 04:57:28;;;;;;;36.83;34.92;;;;;;;;;;5062765;28;20583;-63
2023/11/16 04:59:54;;;;;;;39.72;37.63;;;;;;;;;;5066135;28;20040;-63
2023/11/16 05:02:20;;;;;;;37.72;35.83;;;;;;;;;;5047915;28;20032;-63
2023/11/16 05:04:46;;;;;;;38.97;36.97;;;;;;;;;;5064419;28;20062;-62
2023/11/16 05:07:13;;;;;;;39.83;37.70;;;;;;;;;;5067245;28;20369;-62
2023/11/16 05:09:39;;;;;;;43.00;40.55;;;;;;;;;;5063104;28;20439;-62
2023/11/16 05:12:05;;;;;;;38.33;36.33;;;;;;;;;;5065273;28;20131;-62
2023/11/16 05:14:31;;;;;;;37.90;35.90;;;;;;;;;;5063892;28;20117;-66
2023/11/16 05:16:57;;;;;;;41.42;39.22;;;;;;;;;;5066988;28;20032;-66
2023/11/16 05:19:23;;;;;;;39.25;37.25;;;;;;;;;;5070070;28;20275;-62
2023/11/16 05:21:49;;;;;;;39.65;37.65;;;;;;;;;;5062257;28;21448;-65
2023/11/16 05:24:15;;;;;;;40.33;38.28;;;;;;;;;;5065436;28;20687;-65
2023/11/16 05:26:41;;;;;;;37.55;35.65;;;;;;;;;;5066229;28;20887;-63
2023/11/16 05:29:06;;;;;;;39.17;37.17;;;;;;;;;;5062237;28;20470;-63
2023/11/16 05:31:32;;;;;;;38.63;36.63;;;;;;;;;;5064623;28;20036;-63
2023/11/16 05:33:57;;;;;;;40.08;38.03;;;;;;;;;;5063862;28;20035;-63
2023/11/16 05:36:27;;;;;;;39.38;37.38;;;;;;;;;;5065744;28;20146;-66
2023/11/16 05:38:53;;;;;;;39.17;37.17;;;;;;;;;;5061871;28;20097;-63
2023/11/16 05:41:20;;;;;;;40.20;38.13;;;;;;;;;;5066382;28;20066;-61
2023/11/16 05:43:47;;;;;;;40.00;37.95;;;;;;;;;;5064334;28;20445;-67
2023/11/16 05:46:12;;;;;;;39.20;37.15;;;;;;;;;;5065859;28;20040;-67
2023/11/16 05:48:38;;;;;;;37.75;35.85;;;;;;;;;;5063144;28;20622;-67
2023/11/16 05:51:04;;;;;;;37.95;35.95;;;;;;;;;;5064438;28;20040;-63
2023/11/16 05:53:30;;;;;;;40.50;38.40;;;;;;;;;;5067238;28;20028;-63
2023/11/16 05:55:57;;;;;;;39.85;37.85;;;;;;;;;;5062184;28;20039;-66
2023/11/16 05:58:23;;;;;;;41.65;39.55;;;;;;;;;;5062917;28;20470;-66
2023/11/16 06:00:48;;;;;;;40.30;38.25;;;;;;;;;;5063835;28;20494;-66
2023/11/16 06:03:14;;;;;;;42.90;40.47;;;;;;;;;;5065843;28;20124;-62
2023/11/16 06:05:41;;;;;;;39.85;37.85;;;;;;;;;;5063935;28;20542;-62
2023/11/16 06:08:07;;;;;;;38.13;36.08;;;;;;;;;;5063800;28;20115;-66
2023/11/16 06:10:32;;;;;;;38.17;36.17;;;;;;;;;;5064227;28;20064;-62
2023/11/16 06:12:59;;;;;;;38.58;36.58;;;;;;;;;;5064983;28;20051;-62
2023/11/16 06:15:25;;;;;;;40.13;38.03;;;;;;;;;;5061434;28;20148;-63
2023/11/16 06:17:54;;;;;;;39.33;37.33;;;;;;;;;;5063572;28;20054;-61
2023/11/16 06:20:20;;;;;;;38.65;36.65;;;;;;;;;;5062453;28;20032;-65
2023/11/16 06:22:46;;;;;;;40.80;38.63;;;;;;;;;;5061758;28;20101;-62
2023/11/16 06:25:12;;;;;;;39.10;37.10;;;;;;;;;;5065710;28;20417;-65
2023/11/16 06:27:42;;;;;;;41.13;39.03;;;;;;;;;;5060050;28;20095;-64
2023/11/16 06:30:08;;;;;;;40.72;38.63;;;;;;;;;;5061267;28;20460;-66
2023/11/16 06:32:36;;;;;;;41.50;39.38;;;;;;;;;;5059370;28;20075;-67
2023/11/16 06:35:01;;;;;;;41.63;39.47;;;;;;;;;;5062291;28;20600;-63
2023/11/16 06:37:27;;;;;;;40.20;38.17;;;;;;;;;;5063976;28;20043;-62
2023/11/16 06:39:53;;;;;;;38.38;36.38;;;;;;;;;;5062007;28;20036;-66
2023/11/16 06:42:18;;;;;;;38.22;36.22;;;;;;;;;;5065652;28;20048;-66
2023/11/16 06:44:44;;;;;;;40.00;37.85;;;;;;;;;;5058519;28;20032;-62
2023/11/16 06:47:12;;;;;;;38.88;36.88;;;;;;;;;;5065999;28;20051;-62
2023/11/16 06:49:37;;;;;;;41.65;39.50;;;;;;;;;;5061856;28;20468;-66
2023/11/16 06:52:04;;;;;;;42.65;40.35;;;;;;;;;;5064121;28;20032;-67
2023/11/16 06:54:32;;;;;;;40.05;37.95;;;;;;;;;;5074548;28;20038;-66
2023/11/16 06:56:59;;;;;;;41.28;39.15;;;;;;;;;;5065894;28;20029;-66
2023/11/16 06:59:24;;;;;;;43.03;40.83;;;;;;;;;;5063948;28;20067;-62
2023/11/16 07:01:52;;;;;;;42.53;40.33;;;;;;;;;;5067187;28;20090;-67
2023/11/16 07:04:18;;;;;;;40.95;38.75;;;;;;;;;;5065041;28;20560;-62
2023/11/16 07:06:44;;;;;;;42.72;39.28;;;;;;;;;;5064411;28;20083;-63
2023/11/16 07:09:11;;;;;;;42.22;40.03;;;;;;;;;;5064512;28;20458;-67
2023/11/16 07:11:38;;;;;;;43.72;41.35;;;;;;;;;;5067015;28;20066;-67
2023/11/16 07:14:04;;;;;;;41.13;39.03;;;;;;;;;;5063097;28;20351;-66
2023/11/16 07:16:30;;;;;;;41.65;39.35;;;;;;;;;;5062192;28;20033;-66
2023/11/16 07:18:57;;;;;;;41.95;39.85;;;;;;;;;;5065562;28;20055;-66
2023/11/16 07:21:22;;;;;;;43.63;41.33;;;;;;;;;;5066292;28;20123;-67
2023/11/16 07:23:48;;;;;;;41.95;39.75;;;;;;;;;;5065078;28;20050;-67
2023/11/16 07:26:14;;;;;;;40.70;38.60;;;;;;;;;;5065306;28;20147;-66
2023/11/16 07:28:42;;;;;;;40.95;38.85;;;;;;;;;;5065182;28;20076;-65
2023/11/16 07:31:07;;;;;;;41.28;39.13;;;;;;;;;;5064315;28;20045;-66
2023/11/16 07:33:35;;;;;;;41.35;39.25;;;;;;;;;;5063681;28;20335;-67
2023/11/16 07:36:01;;;;;;;40.78;38.67;;;;;;;;;;5064478;28;20461;-67
2023/11/16 07:38:28;;;;;;;38.88;36.88;;;;;;;;;;5064500;28;20076;-66
2023/11/16 07:40:57;;;;;;;44.30;39.78;;;;;;;;;;5063330;28;20432;-67
2023/11/16 07:43:23;;;;;;;41.45;39.35;;;;;;;;;;5064817;28;20123;-67
2023/11/16 07:45:48;;;;;;;40.70;38.40;;;;;;;;;;5066246;28;20037;-66
2023/11/16 07:48:13;;;;;;;42.53;40.38;;;;;;;;;;5061890;28;20028;-66
2023/11/16 07:50:39;;;;;;;38.72;36.72;;;;;;;;;;5065771;28;20131;-66
2023/11/16 07:53:09;;;;;;;40.80;38.70;;;;;;;;;;5063680;28;20935;-66
2023/11/16 07:55:35;;;;;;;40.63;38.38;;;;;;;;;;5065109;28;20033;-66
2023/11/16 07:58:03;;;;;;;40.90;38.80;;;;;;;;;;5066301;28;20474;-67
2023/11/16 08:00:34;;;;;;;39.53;37.47;;;;;;;;;;5062293;28;20036;-67
2023/11/16 08:05:47;;;;;;;39.20;37.10;;;;;;;;;;5065367;28;20187;-66
2023/11/16 08:08:14;;;;;;;40.25;38.15;;;;;;;;;;5061439;28;20498;-67
2023/11/16 08:10:49;;;;;;;41.13;38.92;;;;;;;;;;5064529;28;20028;-66
2023/11/16 08:13:17;;;;;;;43.00;40.58;;;;;;;;;;5065858;28;20503;-67
2023/11/16 08:15:43;;;;;;;41.90;39.75;;;;;;;;;;5061841;28;20036;-67
2023/11/16 08:18:10;;;;;;;45.88;43.55;;;;;;;;;;5060395;28;20032;-67
2023/11/16 08:20:36;;;;;;;43.65;41.45;;;;;;;;;;5062988;28;20657;-67
2023/11/16 08:23:02;;;;;;;41.80;39.60;;;;;;;;;;5067130;28;20040;-66
2023/11/16 08:25:30;;;;;;;44.65;42.35;;;;;;;;;;5064499;28;20040;-67
2023/11/16 08:27:56;;;;;;;45.33;42.40;;;;;;;;;;5063923;28;20028;-67
2023/11/16 08:30:22;;;;;;;46.30;43.95;;;;;;;;;;5063301;28;20033;-67
2023/11/16 08:32:48;;;;;;;43.75;41.45;;;;;;;;;;5064445;28;20704;-67
2023/11/16 08:35:15;;;;;;;45.55;43.22;;;;;;;;;;5063570;28;20039;-67
2023/11/16 08:37:41;;;;;;;45.78;43.40;;;;;;;;;;5066584;28;20047;-66
2023/11/16 08:40:18;;;;;;;48.55;46.05;;;;;;;;;;5062712;28;20135;-66
2023/11/16 08:42:44;;;;;;;49.47;46.88;;;;;;;;;;5060218;28;20120;-66
2023/11/16 08:45:20;;;;;;;50.33;47.72;;;;;;;;;;5062993;28;20047;-67
2023/11/16 08:47:48;;;;;;;53.08;50.38;;;;;;;;;;5064914;28;20501;-67
2023/11/16 08:50:16;;;;;;;54.60;51.80;;;;;;;;;;5064538;28;20048;-66
2023/11/16 08:52:47;;;;;;;49.17;46.67;;;;;;;;;;5064461;28;20074;-66
2023/11/16 08:55:13;;;;;;;55.80;51.63;;;;;;;;;;5062083;28;20052;-66
2023/11/16 08:57:41;;;;;;;53.65;50.92;;;;;;;;;;5063884;28;20032;-68
2023/11/16 09:00:29;;;;;;;53.10;50.42;;;;;;;;;;5059846;28;20028;-67
2023/11/16 09:02:59;;;;;;;53.25;50.55;;;;;;;;;;5063371;28;20033;-69
2023/11/16 09:05:25;;;;;;;53.75;50.97;;;;;;;;;;5065006;28;20112;-67
2023/11/16 09:07:51;;;;;;;55.05;52.25;;;;;;;;;;5064927;28;20115;-67
2023/11/16 09:10:19;;;;;;;54.97;52.20;;;;;;;;;;5067109;28;20353;-67
2023/11/16 09:12:45;;;;;;;59.03;55.72;;;;;;;;;;5063182;28;20024;-67
2023/11/16 09:15:11;;;;;;;58.42;55.47;;;;;;;;;;5062448;28;20047;-67
2023/11/16 09:17:37;;;;;;;60.70;57.63;;;;;;;;;;5063945;28;20044;-67
2023/11/16 09:20:10;;;;;;;60.28;57.22;;;;;;;;;;5064609;28;20040;-67
2023/11/16 09:22:36;;;;;;;61.67;58.55;;;;;;;;;;5064003;28;20107;-67
2023/11/16 09:25:02;;;;;;;64.00;60.78;;;;;;;;;;5070945;28;20466;-67
2023/11/16 09:27:29;;;;;;;65.40;62.00;;;;;;;;;;5068517;28;20508;-67
2023/11/16 09:29:55;;;;;;;67.30;63.95;;;;;;;;;;5061659;28;20048;-66
2023/11/16 09:32:21;;;;;;;67.30;63.92;;;;;;;;;;5061867;28;20020;-66
2023/11/16 09:34:48;;;;;;;64.57;61.17;;;;;;;;;;5067692;28;20851;-66
2023/11/16 09:37:20;;;;;;;70.32;66.78;;;;;;;;;;5047053;28;20858;-67
2023/11/16 09:39:45;;;;;;;71.68;68.03;;;;;;;;;;5039733;28;20094;-67
2023/11/16 09:42:16;;;;;;;71.85;68.00;;;;;;;;;;5027115;28;20216;-67
2023/11/16 09:44:51;;;;;;;75.75;71.65;;;;;;;;;;5041985;28;20091;-68
2023/11/16 09:47:25;;;;;;;77.50;73.03;;;;;;;;;;5037721;28;20032;-67
2023/11/16 09:49:55;;;;;;;76.85;73.00;;;;;;;;;;5043947;28;20175;-66
2023/11/16 09:52:21;;;;;;;75.70;71.88;;;;;;;;;;5040706;28;20716;-66
2023/11/16 09:54:50;;;;;;;77.20;73.38;;;;;;;;;;5041579;28;20045;-66
2023/11/16 09:57:19;;;;;;;78.45;74.55;;;;;;;;;;5045061;28;20025;-66
2023/11/16 09:59:52;;;;;;;86.05;81.75;;;;;;;;;;5038480;28;20033;-66
2023/11/16 10:02:23;;;;;;;83.40;79.05;;;;;;;;;;5041451;28;20037;-66
2023/11/16 10:04:49;;;;;;;88.80;84.40;;;;;;;;;;5039870;28;20044;-66
2023/11/16 10:07:25;;;;;;;89.50;84.82;;;;;;;;;;5041459;28;20025;-66
2023/11/16 10:09:53;;;;;;;89.53;85.05;;;;;;;;;;5038080;28;20132;-66
2023/11/16 10:12:18;;;;;;;92.38;87.75;;;;;;;;;;5045251;28;20067;-66
2023/11/16 10:14:52;;;;;;;96.40;91.50;;;;;;;;;;5033598;28;20466;-66
2023/11/16 10:17:21;;;;;;;94.95;90.07;;;;;;;;;;5038759;28;20505;-66
2023/11/16 10:19:47;;;;;;;95.70;90.95;;;;;;;;;;5036163;28;20065;-66
2023/11/16 10:22:13;;;;;;;95.40;90.68;;;;;;;;;;5036726;28;20080;-66
2023/11/16 10:24:38;;;;;;;98.28;93.28;;;;;;;;;;5039534;28;20413;-66
2023/11/16 10:27:04;;;;;;;97.43;92.55;;;;;;;;;;5045160;28;20029;-66
2023/11/16 10:29:29;;;;;;;97.30;92.47;;;;;;;;;;5045181;28;20028;-66
2023/11/16 10:31:55;;;;;;;106.40;101.10;;;;;;;;;;5043858;28;20033;-66
2023/11/16 10:34:24;;;;;;;94.88;90.10;;;;;;;;;;5042110;28;20045;-66
2023/11/16 10:36:50;;;;;;;96.85;92.07;;;;;;;;;;5041016;28;20048;-66
2023/11/16 10:39:16;;;;;;;103.78;98.63;;;;;;;;;;5043132;28;20462;-66
2023/11/16 10:41:42;;;;;;;109.20;103.80;;;;;;;;;;5042845;28;20040;-66
2023/11/16 10:44:09;;;;;;;106.30;101.00;;;;;;;;;;5039883;28;20029;-66
2023/11/16 10:46:35;;;;;;;100.35;95.22;;;;;;;;;;5040400;28;20407;-66
2023/11/16 10:49:00;;;;;;;105.68;100.25;;;;;;;;;;5029388;28;20064;-66
2023/11/16 10:51:27;;;;;;;99.88;94.95;;;;;;;;;;5025661;28;20578;-66
2023/11/16 10:53:57;;;;;;;102.53;97.10;;;;;;;;;;5028353;28;20453;-66
2023/11/16 10:56:24;;;;;;;109.68;104.22;;;;;;;;;;5025779;28;20029;-67
2023/11/16 10:58:51;;;;;;;105.30;100.00;;;;;;;;;;5019939;28;20038;-66
2023/11/16 11:01:18;;;;;;;104.55;99.35;;;;;;;;;;5029154;28;20041;-63
2023/11/16 11:03:45;;;;;;;104.18;98.88;;;;;;;;;;5025512;28;20132;-63
2023/11/16 11:06:18;;;;;;;104.88;99.40;;;;;;;;;;5027644;28;21811;-63
2023/11/16 11:08:44;;;;;;;103.53;98.38;;;;;;;;;;5025180;28;20383;-63
2023/11/16 11:11:11;;;;;;;108.13;102.53;;;;;;;;;;5028393;28;20049;-62
2023/11/16 11:13:40;;;;;;;96.88;92.07;;;;;;;;;;5023970;28;20065;-62
2023/11/16 11:16:12;;;;;;;97.68;92.63;;;;;;;;;;5029587;28;20025;-63
2023/11/16 11:18:45;;;;;;;91.65;87.10;;;;;;;;;;5025885;28;20045;-63
2023/11/16 11:21:12;;;;;;;95.22;90.22;;;;;;;;;;5014353;28;20217;-63
2023/11/16 11:23:38;;;;;;;104.65;99.43;;;;;;;;;;5027948;28;20078;-63
2023/11/16 11:26:05;;;;;;;101.82;96.72;;;;;;;;;;5031317;28;20458;-62
2023/11/16 11:28:35;;;;;;;101.68;96.65;;;;;;;;;;5020449;28;20045;-62
2023/11/16 11:31:04;;;;;;;98.70;93.57;;;;;;;;;;5021881;28;20160;-62
2023/11/16 11:33:34;;;;;;;104.32;98.78;;;;;;;;;;5028447;28;20571;-63
2023/11/16 11:36:00;;;;;;;110.53;105.03;;;;;;;;;;5026705;28;20048;-62
2023/11/16 11:38:30;;;;;;;105.32;100.05;;;;;;;;;;5026287;28;20368;-63
2023/11/16 11:40:56;;;;;;;106.95;101.65;;;;;;;;;;5028833;28;20024;-61
2023/11/16 11:43:24;;;;;;;113.22;107.60;;;;;;;;;;5038418;28;20482;-62
2023/11/16 11:45:51;;;;;;;114.45;108.80;;;;;;;;;;5022889;28;20030;-62
2023/11/16 11:48:18;;;;;;;111.68;106.07;;;;;;;;;;5025392;28;20037;-62
2023/11/16 11:50:44;;;;;;;104.78;99.55;;;;;;;;;;5026646;28;20042;-62
2023/11/16 11:53:16;;;;;;;107.75;102.40;;;;;;;;;;5023526;28;20034;-62
2023/11/16 11:55:46;;;;;;;107.07;101.72;;;;;;;;;;5026474;28;20025;-62
2023/11/16 11:58:11;;;;;;;105.45;99.53;;;;;;;;;;5030401;28;20042;-62
2023/11/16 12:00:46;;;;;;;114.95;109.13;;;;;;;;;;5023311;28;20053;-61
2023/11/16 12:03:11;;;;;;;104.05;98.82;;;;;;;;;;5028823;28;20037;-62
2023/11/16 12:05:36;;;;;;;106.72;101.20;;;;;;;;;;5024758;28;20029;-61
2023/11/16 12:08:02;;;;;;;111.85;106.25;;;;;;;;;;5025822;28;20042;-61
2023/11/16 12:10:28;;;;;;;108.90;103.43;;;;;;;;;;5023575;28;20118;-62
2023/11/16 12:12:58;;;;;;;109.05;103.65;;;;;;;;;;5024405;28;20205;-62
2023/11/16 12:15:24;;;;;;;109.95;104.50;;;;;;;;;;5025469;28;20057;-61
2023/11/16 12:17:50;;;;;;;113.63;108.03;;;;;;;;;;5025530;28;20066;-61
2023/11/16 12:20:16;;;;;;;115.60;109.68;;;;;;;;;;5025318;28;20041;-60
2023/11/16 12:22:41;;;;;;;117.15;111.32;;;;;;;;;;5028238;28;20032;-62
2023/11/16 12:25:13;;;;;;;119.88;113.93;;;;;;;;;;5024195;28;20076;-62
2023/11/16 12:27:42;;;;;;;112.70;106.70;;;;;;;;;;5021381;28;20103;-62
2023/11/16 12:30:17;;;;;;;110.88;105.00;;;;;;;;;;5022864;28;20037;-62
2023/11/16 12:32:43;;;;;;;113.68;107.72;;;;;;;;;;5024907;28;20118;-61
2023/11/16 12:35:11;;;;;;;112.75;106.88;;;;;;;;;;5023612;28;20288;-62
2023/11/16 12:37:38;;;;;;;107.22;101.85;;;;;;;;;;5022249;28;20552;-62
2023/11/16 12:40:16;;;;;;;114.07;108.18;;;;;;;;;;5025226;28;20041;-62
2023/11/16 12:42:41;;;;;;;111.88;106.32;;;;;;;;;;5023529;28;20037;-62
2023/11/16 12:45:07;;;;;;;118.78;112.82;;;;;;;;;;5022045;28;20099;-63
2023/11/16 12:47:34;;;;;;;120.35;114.32;;;;;;;;;;5023176;28;20037;-62
2023/11/16 12:49:59;;;;;;;119.78;113.72;;;;;;;;;;5022344;28;20044;-62
2023/11/16 12:52:24;;;;;;;127.72;121.40;;;;;;;;;;5026113;28;20034;-62
2023/11/16 12:54:51;;;;;;;124.40;118.25;;;;;;;;;;5025928;28;20044;-63
2023/11/16 12:57:17;;;;;;;141.15;134.13;;;;;;;;;;5025909;28;20551;-63
2023/11/16 12:59:43;;;;;;;145.73;138.25;;;;;;;;;;5024269;28;20315;-63
2023/11/16 13:02:10;;;;;;;137.80;130.50;;;;;;;;;;5025514;28;20036;-62
2023/11/16 13:04:36;;;;;;;132.20;125.57;;;;;;;;;;5025306;28;20043;-63
2023/11/16 13:07:01;;;;;;;127.05;120.75;;;;;;;;;;5026083;28;20120;-69
2023/11/16 13:09:27;;;;;;;125.13;118.90;;;;;;;;;;5026921;28;20452;-68
2023/11/16 13:11:52;;;;;;;111.90;106.30;;;;;;;;;;5027033;28;20041;-68
2023/11/16 13:14:18;;;;;;;115.15;109.35;;;;;;;;;;5023600;28;20021;-68
2023/11/16 13:16:43;;;;;;;119.03;113.10;;;;;;;;;;5023222;28;20041;-68
2023/11/16 13:19:09;;;;;;;108.38;103.00;;;;;;;;;;5019675;28;20049;-67
2023/11/16 13:21:34;;;;;;;109.57;104.07;;;;;;;;;;5024359;28;20029;-68
2023/11/16 13:23:59;;;;;;;103.60;98.45;;;;;;;;;;5026488;28;20403;-67
2023/11/16 13:26:25;;;;;;;96.13;91.38;;;;;;;;;;5029340;28;20045;-67
2023/11/16 13:28:52;;;;;;;93.57;88.60;;;;;;;;;;5023950;28;20195;-68
2023/11/16 13:31:18;;;;;;;94.18;88.90;;;;;;;;;;5023959;28;20071;-69
2023/11/16 13:33:45;;;;;;;98.90;93.65;;;;;;;;;;5025463;28;20044;-68
2023/11/16 13:36:10;;;;;;;88.80;84.40;;;;;;;;;;5026034;28;20021;-68
2023/11/16 13:38:36;;;;;;;90.78;85.90;;;;;;;;;;5023025;28;20111;-70
2023/11/16 13:41:02;;;;;;;84.93;80.68;;;;;;;;;;5022990;28;20058;-69
2023/11/16 13:43:27;;;;;;;85.80;81.43;;;;;;;;;;5020090;28;20029;-68
2023/11/16 13:45:52;;;;;;;79.45;75.47;;;;;;;;;;5022986;28;20021;-68
2023/11/16 13:48:18;;;;;;;75.35;71.53;;;;;;;;;;5024836;28;20390;-68
2023/11/16 13:50:44;;;;;;;70.20;66.68;;;;;;;;;;5022645;28;20030;-68
2023/11/16 13:53:09;;;;;;;78.90;74.70;;;;;;;;;;5020488;28;20049;-67
2023/11/16 13:55:35;;;;;;;76.57;72.07;;;;;;;;;;5023446;28;20030;-67
2023/11/16 13:58:00;;;;;;;71.43;67.57;;;;;;;;;;5024939;28;20060;-68
2023/11/16 14:00:28;;;;;;;71.18;67.18;;;;;;;;;;5022305;28;20352;-67
2023/11/16 14:02:53;;;;;;;67.60;64.10;;;;;;;;;;5018360;28;20040;-68
2023/11/16 14:05:20;;;;;;;62.30;59.15;;;;;;;;;;5020275;28;20391;-68
2023/11/16 14:07:46;;;;;;;63.65;60.40;;;;;;;;;;5020717;28;20108;-68
2023/11/16 14:10:12;;;;;;;60.28;57.08;;;;;;;;;;5022462;28;20175;-67
2023/11/16 14:12:37;;;;;;;57.90;54.92;;;;;;;;;;5025795;28;20029;-68
2023/11/16 14:15:09;;;;;;;58.88;55.88;;;;;;;;;;5024566;28;20136;-66